createdAt,value
2019-02-24T00:00:48.189Z,35.00
2019-02-24T00:03:36.209Z,35.00
2019-02-24T00:06:22.943Z,35.00
2019-02-24T00:09:09.288Z,35.10
2019-02-24T00:11:55.724Z,35.00
2019-02-24T00:14:41.976Z,35.00
2019-02-24T00:17:28.412Z,35.00
2019-02-24T00:20:14.755Z,35.00
2019-02-24T00:23:00.711Z,35.00
2019-02-24T00:25:47.116Z,35.00
2019-02-24T00:28:33.508Z,35.10
2019-02-24T00:31:20.783Z,35.10
2019-02-24T00:34:06.771Z,35.10
2019-02-24T00:36:53.003Z,35.10
2019-02-24T00:39:39.455Z,35.20
2019-02-24T00:42:25.831Z,35.20
2019-02-24T00:45:12.080Z,35.20
2019-02-24T00:47:59.290Z,35.20
2019-02-24T00:50:45.425Z,35.50
2019-02-24T00:53:31.679Z,35.10
2019-02-24T00:56:17.940Z,35.10
2019-02-24T00:59:04.300Z,35.20
2019-02-24T01:01:50.535Z,35.10
2019-02-24T01:04:37.971Z,35.20
2019-02-24T01:07:23.999Z,35.10
2019-02-24T01:10:10.309Z,35.20
2019-02-24T01:12:56.785Z,35.20
2019-02-24T01:15:44.328Z,35.20
2019-02-24T01:18:30.331Z,35.20
2019-02-24T01:21:16.165Z,35.20
2019-02-24T01:24:02.394Z,35.30
2019-02-24T01:26:48.575Z,35.20
2019-02-24T01:29:34.664Z,35.20
2019-02-24T01:32:20.883Z,35.20
2019-02-24T01:35:07.524Z,35.20
2019-02-24T01:37:53.765Z,35.20
2019-02-24T01:40:40.420Z,35.20
2019-02-24T01:43:26.683Z,35.20
2019-02-24T01:46:13.119Z,35.20
2019-02-24T01:48:59.267Z,35.20
2019-02-24T01:51:46.019Z,35.20
2019-02-24T01:54:32.367Z,35.20
2019-02-24T01:57:18.223Z,35.30
2019-02-24T02:00:04.748Z,35.20
2019-02-24T02:02:51.897Z,35.30
2019-02-24T02:05:38.198Z,35.20
2019-02-24T02:08:24.633Z,35.30
2019-02-24T02:11:10.934Z,35.30
2019-02-24T02:13:57.864Z,35.20
2019-02-24T02:16:44.151Z,35.20
2019-02-24T02:19:30.830Z,35.20
2019-02-24T02:22:17.392Z,35.20
2019-02-24T02:25:03.853Z,35.20
2019-02-24T02:27:51.287Z,35.20
2019-02-24T02:30:37.571Z,35.20
2019-02-24T02:33:23.601Z,35.20
2019-02-24T02:36:09.843Z,35.30
2019-02-24T02:38:56.041Z,35.30
2019-02-24T02:41:42.499Z,35.20
2019-02-24T02:44:28.700Z,35.20
2019-02-24T02:47:15.243Z,35.20
2019-02-24T02:50:01.227Z,35.20
2019-02-24T02:52:47.551Z,35.20
2019-02-24T02:55:33.807Z,35.10
2019-02-24T02:58:20.316Z,35.10
2019-02-24T03:01:06.541Z,35.10
2019-02-24T03:03:52.939Z,35.20
2019-02-24T03:06:52.603Z,35.20
2019-02-24T03:09:38.851Z,35.20
2019-02-24T03:12:25.291Z,35.20
2019-02-24T03:15:11.669Z,35.20
2019-02-24T03:17:57.992Z,35.20
2019-02-24T03:20:44.443Z,35.20
2019-02-24T03:23:30.631Z,35.20
2019-02-24T03:26:17.018Z,35.20
2019-02-24T03:29:04.336Z,35.10
2019-02-24T03:31:50.644Z,35.20
2019-02-24T03:34:36.980Z,35.20
2019-02-24T03:37:23.975Z,35.10
2019-02-24T03:40:10.205Z,35.10
2019-02-24T03:42:56.402Z,35.10
2019-02-24T03:45:42.909Z,35.20
2019-02-24T03:48:29.236Z,35.20
2019-02-24T03:51:15.152Z,35.10
2019-02-24T03:54:00.941Z,35.20
2019-02-24T03:56:47.306Z,35.20
2019-02-24T03:59:33.864Z,35.20
2019-02-24T04:02:20.053Z,35.10
2019-02-24T04:05:06.478Z,35.20
2019-02-24T04:07:52.909Z,35.20
2019-02-24T04:10:39.199Z,35.20
2019-02-24T04:13:25.393Z,35.30
2019-02-24T04:16:11.872Z,35.20
2019-02-24T04:18:58.044Z,35.60
2019-02-24T04:21:44.399Z,35.20
2019-02-24T04:24:30.721Z,35.30
2019-02-24T04:27:17.175Z,35.30
2019-02-24T04:30:03.599Z,35.30
2019-02-24T04:32:51.408Z,35.30
2019-02-24T04:35:37.522Z,35.30
2019-02-24T04:38:23.827Z,35.20
2019-02-24T04:41:10.277Z,35.30
2019-02-24T04:43:56.674Z,35.30
2019-02-24T04:46:43.078Z,35.70
2019-02-24T04:49:29.324Z,35.30
2019-02-24T04:52:15.727Z,35.30
2019-02-24T04:55:02.035Z,35.30
2019-02-24T04:57:48.316Z,35.30
2019-02-24T05:00:34.939Z,35.40
2019-02-24T05:03:21.430Z,35.30
2019-02-24T05:06:07.813Z,35.30
2019-02-24T05:08:54.100Z,35.30
2019-02-24T05:11:40.184Z,35.30
2019-02-24T05:14:26.424Z,35.30
2019-02-24T05:17:12.886Z,35.20
2019-02-24T05:19:59.369Z,35.20
2019-02-24T05:22:45.743Z,35.20
2019-02-24T05:25:32.135Z,35.20
2019-02-24T05:28:18.583Z,35.20
2019-02-24T05:31:04.881Z,35.20
2019-02-24T05:33:50.951Z,35.20
2019-02-24T05:36:37.145Z,35.20
2019-02-24T05:39:23.395Z,35.20
2019-02-24T05:42:09.765Z,35.20
2019-02-24T05:44:56.012Z,35.20
2019-02-24T05:47:42.368Z,35.40
2019-02-24T05:50:29.004Z,35.30
2019-02-24T05:53:16.219Z,35.20
2019-02-24T05:56:03.900Z,35.20
2019-02-24T05:58:51.827Z,35.90
2019-02-24T06:01:40.319Z,35.20
2019-02-24T06:04:28.571Z,35.20
2019-02-24T06:07:15.007Z,35.30
2019-02-24T06:10:01.320Z,35.20
2019-02-24T06:12:47.747Z,35.20
2019-02-24T06:15:34.087Z,35.20
2019-02-24T06:18:20.901Z,35.20
2019-02-24T06:21:07.133Z,35.20
2019-02-24T06:23:53.459Z,35.20
2019-02-24T06:26:39.878Z,35.20
2019-02-24T06:29:26.523Z,35.30
2019-02-24T06:32:12.596Z,35.30
2019-02-24T06:34:58.991Z,35.30
2019-02-24T06:37:44.831Z,35.30
2019-02-24T06:40:30.839Z,35.30
2019-02-24T06:43:17.024Z,35.20
2019-02-24T06:46:03.422Z,35.20
2019-02-24T06:48:49.721Z,35.20
2019-02-24T06:51:36.028Z,35.20
2019-02-24T06:54:22.340Z,35.10
2019-02-24T06:57:08.891Z,35.00
2019-02-24T06:59:55.124Z,35.00
2019-02-24T07:02:41.004Z,34.90
2019-02-24T07:05:27.397Z,34.90
2019-02-24T07:08:13.779Z,35.00
2019-02-24T07:11:00.109Z,34.90
2019-02-24T07:13:46.491Z,35.00
2019-02-24T07:16:32.851Z,35.00
2019-02-24T07:19:19.271Z,35.00
2019-02-24T07:22:05.623Z,35.00
2019-02-24T07:24:52.068Z,34.90
2019-02-24T07:27:37.903Z,35.00
2019-02-24T07:30:24.266Z,35.00
2019-02-24T07:33:12.389Z,34.90
2019-02-24T07:35:58.630Z,35.00
2019-02-24T07:38:44.941Z,34.90
2019-02-24T07:41:31.248Z,34.90
2019-02-24T07:44:18.189Z,34.90
2019-02-24T07:47:04.528Z,35.00
2019-02-24T07:49:50.847Z,34.90
2019-02-24T07:52:37.399Z,34.90
2019-02-24T07:55:23.671Z,35.00
2019-02-24T07:58:10.104Z,35.00
2019-02-24T08:00:56.703Z,35.00
2019-02-24T08:03:43.047Z,34.90
2019-02-24T08:06:29.466Z,34.70
2019-02-24T08:09:16.127Z,34.20
2019-02-24T08:12:02.687Z,34.00
2019-02-24T08:14:48.714Z,33.40
2019-02-24T08:17:35.070Z,33.00
2019-02-24T08:20:21.444Z,32.70
2019-02-24T08:23:07.679Z,32.60
2019-02-24T08:25:54.171Z,32.70
2019-02-24T08:28:40.391Z,32.80
2019-02-24T08:31:26.865Z,32.90
2019-02-24T08:34:13.186Z,32.60
2019-02-24T08:36:59.383Z,32.40
2019-02-24T08:39:45.727Z,32.10
2019-02-24T08:42:32.004Z,31.80
2019-02-24T08:45:18.201Z,31.50
2019-02-24T08:48:04.605Z,31.30
2019-02-24T08:50:50.939Z,31.10
2019-02-24T08:53:36.873Z,30.80
2019-02-24T08:56:23.459Z,30.70
2019-02-24T08:59:09.831Z,30.60
2019-02-24T09:01:55.573Z,30.50
2019-02-24T09:04:42.459Z,30.30
2019-02-24T09:07:28.754Z,30.30
2019-02-24T09:10:15.159Z,30.10
2019-02-24T09:13:01.337Z,30.00
2019-02-24T09:15:47.998Z,30.00
2019-02-24T09:18:34.303Z,30.00
2019-02-24T09:21:20.706Z,29.90
2019-02-24T09:24:07.048Z,30.00
2019-02-24T09:26:53.535Z,29.80
2019-02-24T09:29:39.786Z,29.80
2019-02-24T09:32:26.152Z,29.90
2019-02-24T09:35:12.634Z,29.90
2019-02-24T09:37:58.879Z,29.80
2019-02-24T09:40:45.319Z,29.90
2019-02-24T09:43:31.875Z,29.80
2019-02-24T09:46:18.072Z,29.70
2019-02-24T09:49:04.476Z,29.70
2019-02-24T09:51:52.336Z,29.70
2019-02-24T09:54:38.755Z,29.70
2019-02-24T09:57:25.081Z,29.70
2019-02-24T10:00:11.103Z,29.80
2019-02-24T10:02:57.717Z,29.80
2019-02-24T10:05:44.177Z,29.90
2019-02-24T10:08:31.603Z,29.90
2019-02-24T10:11:17.993Z,29.90
2019-02-24T10:14:04.426Z,29.90
2019-02-24T10:16:50.824Z,29.90
2019-02-24T10:19:37.030Z,29.90
2019-02-24T10:22:23.527Z,30.00
2019-02-24T10:25:10.139Z,30.00
2019-02-24T10:27:56.276Z,30.00
2019-02-24T10:30:42.411Z,30.00
2019-02-24T10:33:28.775Z,30.10
2019-02-24T10:36:15.007Z,30.10
2019-02-24T10:39:01.428Z,30.30
2019-02-24T10:41:49.817Z,30.40
2019-02-24T10:44:36.008Z,30.40
2019-02-24T10:47:22.043Z,30.60
2019-02-24T10:50:10.400Z,30.50
2019-02-24T10:52:56.621Z,30.80
2019-02-24T10:55:42.683Z,30.80
2019-02-24T10:58:34.681Z,30.90
2019-02-24T11:01:16.757Z,31.10
2019-02-24T11:04:02.967Z,31.10
2019-02-24T11:06:49.367Z,31.30
2019-02-24T11:09:35.647Z,31.40
2019-02-24T11:12:21.653Z,31.50
2019-02-24T11:15:08.042Z,31.60
2019-02-24T11:17:54.262Z,31.70
2019-02-24T11:20:40.551Z,31.70
2019-02-24T11:23:27.015Z,31.90
2019-02-24T11:26:12.899Z,32.00
2019-02-24T11:28:59.471Z,32.10
2019-02-24T11:31:45.699Z,32.20
2019-02-24T11:34:32.099Z,32.20
2019-02-24T11:37:18.488Z,32.30
2019-02-24T11:40:07.807Z,32.30
2019-02-24T11:42:54.271Z,32.40
2019-02-24T11:45:40.263Z,32.40
2019-02-24T11:48:26.453Z,32.40
2019-02-24T11:51:12.817Z,32.50
2019-02-24T11:53:59.330Z,32.50
2019-02-24T11:56:45.566Z,32.60
2019-02-24T11:59:31.897Z,32.60
2019-02-24T12:02:18.339Z,32.60
2019-02-24T12:05:04.544Z,32.70
2019-02-24T12:07:50.574Z,32.70
2019-02-24T12:10:36.828Z,32.70
2019-02-24T12:13:24.195Z,32.80
2019-02-24T12:16:10.208Z,32.80
2019-02-24T12:18:56.895Z,32.80
2019-02-24T12:21:44.217Z,32.80
2019-02-24T12:24:30.678Z,32.80
2019-02-24T12:27:17.096Z,32.90
2019-02-24T12:30:04.252Z,32.90
2019-02-24T12:32:53.139Z,32.90
2019-02-24T12:35:39.376Z,32.90
2019-02-24T12:38:25.776Z,33.00
2019-02-24T12:41:12.320Z,33.00
2019-02-24T12:43:58.728Z,33.00
2019-02-24T12:46:47.647Z,33.00
2019-02-24T12:49:33.973Z,33.00
2019-02-24T12:52:20.765Z,33.10
2019-02-24T12:55:07.379Z,33.10
2019-02-24T12:57:53.647Z,33.10
2019-02-24T13:00:39.612Z,33.10
2019-02-24T13:03:26.015Z,33.20
2019-02-24T13:06:11.756Z,33.20
2019-02-24T13:08:59.311Z,33.30
2019-02-24T13:11:45.639Z,33.30
2019-02-24T13:14:32.052Z,33.30
2019-02-24T13:17:18.500Z,33.40
2019-02-24T13:20:06.027Z,33.40
2019-02-24T13:22:53.120Z,33.40
2019-02-24T13:25:40.081Z,33.40
2019-02-24T13:28:26.336Z,33.50
2019-02-24T13:31:12.195Z,33.50
2019-02-24T13:33:58.539Z,33.50
2019-02-24T13:36:45.191Z,33.60
2019-02-24T13:39:31.456Z,33.70
2019-02-24T13:42:17.944Z,33.70
2019-02-24T13:45:05.231Z,33.70
2019-02-24T13:47:51.334Z,33.80
2019-02-24T13:50:37.740Z,33.80
2019-02-24T13:53:24.291Z,33.80
2019-02-24T13:56:10.776Z,34.00
2019-02-24T13:58:57.244Z,33.90
2019-02-24T14:01:43.603Z,34.00
2019-02-24T14:04:30.008Z,34.10
2019-02-24T14:07:16.242Z,34.20
2019-02-24T14:10:02.817Z,34.10
2019-02-24T14:12:49.511Z,34.10
2019-02-24T14:15:38.183Z,34.20
2019-02-24T14:18:24.146Z,34.30
2019-02-24T14:21:10.471Z,34.30
2019-02-24T14:23:56.788Z,34.40
2019-02-24T14:26:43.325Z,34.50
2019-02-24T14:29:29.677Z,34.50
2019-02-24T14:32:15.950Z,34.50
2019-02-24T14:35:02.247Z,34.60
2019-02-24T14:37:48.598Z,34.60
2019-02-24T14:40:34.860Z,34.70
2019-02-24T14:43:21.158Z,34.70
2019-02-24T14:46:07.476Z,34.80
2019-02-24T14:48:53.769Z,34.80
2019-02-24T14:51:40.024Z,34.90
2019-02-24T14:54:26.589Z,34.90
2019-02-24T14:57:12.883Z,34.90
2019-02-24T14:59:59.067Z,34.90
2019-02-24T15:02:44.972Z,34.90
2019-02-24T15:05:31.368Z,34.90
2019-02-24T15:08:17.283Z,35.00
2019-02-24T15:11:03.593Z,35.00
2019-02-24T15:13:49.953Z,35.00
2019-02-24T15:16:36.481Z,35.10
2019-02-24T15:19:22.821Z,35.20
2019-02-24T15:22:09.172Z,35.10
2019-02-24T15:24:55.657Z,35.20
2019-02-24T15:27:42.321Z,35.20
2019-02-24T15:30:30.080Z,35.20
2019-02-24T15:33:16.727Z,35.30
2019-02-24T15:36:04.041Z,35.40
2019-02-24T15:38:50.361Z,35.40
2019-02-24T15:41:36.632Z,35.40
2019-02-24T15:44:23.003Z,35.50
2019-02-24T15:47:09.351Z,35.50
2019-02-24T15:49:55.807Z,35.60
2019-02-24T15:52:42.108Z,35.50
2019-02-24T15:55:27.961Z,35.60
2019-02-24T15:58:14.432Z,35.60
2019-02-24T16:01:00.649Z,35.60
2019-02-24T16:03:47.111Z,35.70
2019-02-24T16:06:37.174Z,35.70
2019-02-24T16:09:23.152Z,35.70
2019-02-24T16:12:09.415Z,35.80
2019-02-24T16:14:55.307Z,35.70
2019-02-24T16:17:41.634Z,35.60
2019-02-24T16:20:28.024Z,35.70
2019-02-24T16:23:14.439Z,35.70
2019-02-24T16:26:00.699Z,35.90
2019-02-24T16:28:47.551Z,35.90
2019-02-24T16:31:34.031Z,35.90
2019-02-24T16:34:20.235Z,35.90
2019-02-24T16:37:06.532Z,35.90
2019-02-24T16:39:52.872Z,36.40
2019-02-24T16:42:39.212Z,36.10
2019-02-24T16:45:25.116Z,36.10
2019-02-24T16:48:11.391Z,36.50
2019-02-24T16:50:57.767Z,36.10
2019-02-24T16:53:44.312Z,36.10
2019-02-24T16:56:30.581Z,36.10
2019-02-24T16:59:16.895Z,36.10
2019-02-24T17:02:03.000Z,36.10
2019-02-24T17:04:49.359Z,36.20
2019-02-24T17:07:35.776Z,36.20
2019-02-24T17:10:22.232Z,36.20
2019-02-24T17:13:08.531Z,36.20
2019-02-24T17:15:54.936Z,36.20
2019-02-24T17:18:41.397Z,36.20
2019-02-24T17:21:27.645Z,36.30
2019-02-24T17:24:14.116Z,36.30
2019-02-24T17:27:00.344Z,36.30
2019-02-24T17:29:47.306Z,36.30
2019-02-24T17:32:33.643Z,36.30
2019-02-24T17:35:19.971Z,36.30
2019-02-24T17:38:06.231Z,36.40
2019-02-24T17:40:52.153Z,36.50
2019-02-24T17:43:38.427Z,36.40
2019-02-24T17:46:24.276Z,36.40
2019-02-24T17:49:10.742Z,36.40
2019-02-24T17:51:57.047Z,36.40
2019-02-24T17:54:43.393Z,36.40
2019-02-24T17:57:29.768Z,36.40
2019-02-24T18:00:20.281Z,36.40
2019-02-24T18:03:06.509Z,36.30
2019-02-24T18:05:52.919Z,36.40
2019-02-24T18:08:39.370Z,36.40
2019-02-24T18:11:25.580Z,36.50
2019-02-24T18:14:12.504Z,36.40
2019-02-24T18:16:58.797Z,36.40
2019-02-24T18:19:45.131Z,36.40
2019-02-24T18:22:31.575Z,36.40
2019-02-24T18:25:17.880Z,36.50
2019-02-24T18:28:04.181Z,36.40
2019-02-24T18:30:50.747Z,36.40
2019-02-24T18:33:37.020Z,36.40
2019-02-24T18:36:23.448Z,36.40
2019-02-24T18:39:10.320Z,36.50
2019-02-24T18:41:56.859Z,36.50
2019-02-24T18:44:43.196Z,36.50
2019-02-24T18:47:29.760Z,36.50
2019-02-24T18:50:16.057Z,36.50
2019-02-24T18:53:02.412Z,36.40
2019-02-24T18:55:48.755Z,36.50
2019-02-24T18:58:34.997Z,36.50
2019-02-24T19:01:21.393Z,36.50
2019-02-24T19:04:07.631Z,36.80
2019-02-24T19:06:53.958Z,36.40
2019-02-24T19:09:43.647Z,36.50
2019-02-24T19:12:29.801Z,36.50
2019-02-24T19:15:16.497Z,36.50
2019-02-24T19:18:02.506Z,36.50
2019-02-24T19:20:48.888Z,36.50
2019-02-24T19:23:35.103Z,36.50
2019-02-24T19:26:21.033Z,36.50
2019-02-24T19:29:08.275Z,36.50
2019-02-24T19:31:54.532Z,36.60
2019-02-24T19:34:40.372Z,36.60
2019-02-24T19:37:26.192Z,36.60
2019-02-24T19:40:14.096Z,36.60
2019-02-24T19:43:00.490Z,36.60
2019-02-24T19:45:46.716Z,36.60
2019-02-24T19:48:41.561Z,36.60
2019-02-24T19:51:20.477Z,36.50
2019-02-24T19:54:06.979Z,36.50
2019-02-24T19:56:53.151Z,36.60
2019-02-24T19:59:39.460Z,36.30
2019-02-24T20:02:25.588Z,36.20
2019-02-24T20:05:11.475Z,36.70
2019-02-24T20:07:57.942Z,37.10
2019-02-24T20:10:44.149Z,37.20
2019-02-24T20:13:30.620Z,37.30
2019-02-24T20:16:17.199Z,37.40
2019-02-24T20:19:03.426Z,37.60
2019-02-24T20:21:49.493Z,37.60
2019-02-24T20:24:35.282Z,37.60
2019-02-24T20:27:21.667Z,37.80
2019-02-24T20:30:11.575Z,37.90
2019-02-24T20:32:58.104Z,38.20
2019-02-24T20:35:44.236Z,38.50
2019-02-24T20:38:30.579Z,38.80
2019-02-24T20:41:16.957Z,39.20
2019-02-24T20:44:02.793Z,39.30
2019-02-24T20:46:49.124Z,39.50
2019-02-24T20:49:35.548Z,39.60
2019-02-24T20:52:22.246Z,39.90
2019-02-24T20:55:09.140Z,40.00
2019-02-24T20:57:55.107Z,40.10
2019-02-24T21:00:52.110Z,40.10
2019-02-24T21:03:40.457Z,40.20
2019-02-24T21:06:31.883Z,40.10
2019-02-24T21:09:27.111Z,40.00
2019-02-24T21:12:21.439Z,40.00
2019-02-24T21:15:09.400Z,40.10
2019-02-24T21:17:55.400Z,40.30
2019-02-24T21:20:45.816Z,40.20
2019-02-24T21:23:37.019Z,40.40
2019-02-24T21:26:25.091Z,40.30
2019-02-24T21:29:12.172Z,40.20
2019-02-24T21:31:58.463Z,40.30
2019-02-24T21:34:44.890Z,40.30
2019-02-24T21:37:32.902Z,40.40
2019-02-24T21:40:18.891Z,40.10
2019-02-24T21:43:05.348Z,40.00
2019-02-24T21:45:52.860Z,40.00
2019-02-24T21:48:39.871Z,40.00
2019-02-24T21:51:26.579Z,40.10
2019-02-24T21:54:21.413Z,40.20
2019-02-24T21:57:09.865Z,40.40
2019-02-24T21:59:57.551Z,40.40
2019-02-24T22:02:47.608Z,40.40
2019-02-24T22:06:05.978Z,40.30
2019-02-24T22:08:52.334Z,40.30
2019-02-24T22:11:38.715Z,40.30
2019-02-24T22:14:25.157Z,40.30
2019-02-24T22:17:11.560Z,40.40
2019-02-24T22:20:00.760Z,40.30
2019-02-24T22:22:48.385Z,40.30
2019-02-24T22:25:34.636Z,40.30
2019-02-24T22:28:20.550Z,40.20
2019-02-24T22:31:06.918Z,40.30
2019-02-24T22:33:53.287Z,40.30
2019-02-24T22:36:39.815Z,40.10
2019-02-24T22:39:26.217Z,40.10
2019-02-24T22:42:13.072Z,40.20
2019-02-24T22:45:00.453Z,40.10
2019-02-24T22:47:47.128Z,40.20
2019-02-24T22:50:34.961Z,40.10
2019-02-24T22:53:21.517Z,40.10
2019-02-24T22:56:07.942Z,40.10
2019-02-24T22:58:54.323Z,40.00
2019-02-24T23:01:42.016Z,39.90
2019-02-24T23:04:29.447Z,39.90
2019-02-24T23:07:15.796Z,40.00
2019-02-24T23:10:01.995Z,40.00
2019-02-24T23:12:49.162Z,40.10
2019-02-24T23:15:35.622Z,40.10
2019-02-24T23:18:22.056Z,40.00
2019-02-24T23:21:08.320Z,40.00
2019-02-24T23:23:54.511Z,40.00
2019-02-24T23:26:41.018Z,40.00
2019-02-24T23:29:27.188Z,40.10
2019-02-24T23:32:13.539Z,40.00
2019-02-24T23:34:59.910Z,40.00
2019-02-24T23:37:46.236Z,40.00
2019-02-24T23:40:32.551Z,40.00
2019-02-24T23:43:18.941Z,40.00
2019-02-24T23:46:05.110Z,40.00
2019-02-24T23:48:52.475Z,40.00
2019-02-24T23:51:38.828Z,40.00
2019-02-24T23:54:24.613Z,40.00
2019-02-24T23:57:10.912Z,40.00
2019-02-24T23:59:57.369Z,40.00
